Terminal Aerodrome Forecast
Issued by NWS Charleston, WV

Current Version | Previous Version | Graphics & Text | Print | Product List | Glossary On
Versions: 1 2 3 4 5 6 7 8 9 10 11 12 13 14 15 16 17 18 19 20 21 22 23 24 25 26 27 28
000
FTUS41 KRLX 200800 AAA
TAFHTS
TAF AMD
KHTS 200828Z 2008/2106 VRB03KT 4SM BR FEW040
      TEMPO 2008/2009 6SM BR BKN080
     FM200900 22004KT P6SM VCTS OVC035CB
     FM201100 00000KT 3SM SHRA BR VCTS OVC025CB
     FM201500 20005KT P6SM BKN025
     FM201700 24008KT P6SM VCTS BKN035CB
     FM202100 24006KT P6SM BKN040
     FM202200 24005KT P6SM VCTS BKN040CB
     FM210200 VRB03KT 6SM BR BKN200=

USA.gov is the U.S. government's official web portal to all federal, state and local government web resources and services.